sensor_id;sensor_type;location;lat;lon;timestamp;temperature;humidity
66831;DHT22;53739;44.224;22.528;2022-11-13T04:27:57;180.10;2252.80
66831;DHT22;53739;44.224;22.528;2022-11-13T06:00:14;205.70;2252.80
66831;DHT22;53739;44.224;22.528;2022-11-13T06:02:40;230.40;2252.80
66831;DHT22;53739;44.224;22.528;2022-11-13T06:05:09;230.40;2252.80
66831;DHT22;53739;44.224;22.528;2022-11-13T06:07:38;230.40;2252.80
66831;DHT22;53739;44.224;22.528;2022-11-13T06:16:47;230.50;2252.80
66831;DHT22;53739;44.224;22.528;2022-11-13T07:16:59;281.60;2278.40
66831;DHT22;53739;44.224;22.528;2022-11-13T07:19:58;281.80;2278.40
66831;DHT22;53739;44.224;22.528;2022-11-13T07:29:20;307.20;2304.00
66831;DHT22;53739;44.224;22.528;2022-11-13T07:35:54;307.40;2304.00
66831;DHT22;53739;44.224;22.528;2022-11-13T07:42:41;307.70;2304.00
66831;DHT22;53739;44.224;22.528;2022-11-13T08:09:55;333.50;2329.60
66831;DHT22;53739;44.224;22.528;2022-11-13T08:23:34;359.20;128.00
66831;DHT22;53739;44.224;22.528;2022-11-13T08:26:10;359.10;128.00
66831;DHT22;53739;44.224;22.528;2022-11-13T08:28:39;384.00;128.00
66831;DHT22;53739;44.224;22.528;2022-11-13T08:31:11;384.30;128.00
66831;DHT22;53739;44.224;22.528;2022-11-13T08:33:37;384.40;128.00
66831;DHT22;53739;44.224;22.528;2022-11-13T08:36:04;384.30;128.00
66831;DHT22;53739;44.224;22.528;2022-11-13T08:38:29;384.40;128.00
66831;DHT22;53739;44.224;22.528;2022-11-13T08:40:57;384.60;128.00
66831;DHT22;53739;44.224;22.528;2022-11-13T08:43:23;384.90;128.00
66831;DHT22;53739;44.224;22.528;2022-11-13T08:45:48;409.80;128.00
66831;DHT22;53739;44.224;22.528;2022-11-13T08:48:14;410.00;128.00
66831;DHT22;53739;44.224;22.528;2022-11-13T08:50:40;410.10;128.00
66831;DHT22;53739;44.224;22.528;2022-11-13T08:53:06;410.30;128.00
66831;DHT22;53739;44.224;22.528;2022-11-13T08:55:36;410.30;128.00
66831;DHT22;53739;44.224;22.528;2022-11-13T08:58:03;410.40;128.00
66831;DHT22;53739;44.224;22.528;2022-11-13T09:00:32;435.20;128.00
66831;DHT22;53739;44.224;22.528;2022-11-13T09:02:59;435.30;128.00
66831;DHT22;53739;44.224;22.528;2022-11-13T09:05:28;435.60;128.00
66831;DHT22;53739;44.224;22.528;2022-11-13T09:08:00;435.40;563.20
66831;DHT22;53739;44.224;22.528;2022-11-13T09:10:26;435.80;128.00
66831;DHT22;53739;44.224;22.528;2022-11-13T09:13:01;435.70;128.00
66831;DHT22;53739;44.224;22.528;2022-11-13T09:15:28;435.80;128.00
66831;DHT22;53739;44.224;22.528;2022-11-13T09:17:58;436.10;307.20
66831;DHT22;53739;44.224;22.528;2022-11-13T09:20:25;435.70;128.00
66831;DHT22;53739;44.224;22.528;2022-11-13T09:25:23;435.30;128.00
66831;DHT22;53739;44.224;22.528;2022-11-13T09:27:58;435.70;128.00
66831;DHT22;53739;44.224;22.528;2022-11-13T09:30:25;435.80;281.60
66831;DHT22;53739;44.224;22.528;2022-11-13T09:32:56;435.60;537.60
66831;DHT22;53739;44.224;22.528;2022-11-13T09:35:23;435.70;128.00
66831;DHT22;53739;44.224;22.528;2022-11-13T09:38:09;435.80;307.20
66831;DHT22;53739;44.224;22.528;2022-11-13T09:40:47;435.80;128.00
66831;DHT22;53739;44.224;22.528;2022-11-13T09:43:43;435.60;128.00
66831;DHT22;53739;44.224;22.528;2022-11-13T09:46:34;435.80;128.00
66831;DHT22;53739;44.224;22.528;2022-11-13T09:49:16;435.80;128.00
66831;DHT22;53739;44.224;22.528;2022-11-13T09:51:54;436.00;307.20
66831;DHT22;53739;44.224;22.528;2022-11-13T09:54:21;436.00;128.00
66831;DHT22;53739;44.224;22.528;2022-11-13T09:57:22;435.80;128.00
66831;DHT22;53739;44.224;22.528;2022-11-13T10:00:06;435.50;128.00
66831;DHT22;53739;44.224;22.528;2022-11-13T10:02:49;435.60;307.20
66831;DHT22;53739;44.224;22.528;2022-11-13T10:05:27;435.50;384.00
66831;DHT22;53739;44.224;22.528;2022-11-13T10:08:24;435.90;128.00
66831;DHT22;53739;44.224;22.528;2022-11-13T10:13:45;436.00;256.00
66831;DHT22;53739;44.224;22.528;2022-11-13T10:16:32;435.80;128.00
66831;DHT22;53739;44.224;22.528;2022-11-13T10:19:19;436.00;256.00
66831;DHT22;53739;44.224;22.528;2022-11-13T10:21:49;460.90;332.80
66831;DHT22;53739;44.224;22.528;2022-11-13T10:24:35;461.30;128.00
66831;DHT22;53739;44.224;22.528;2022-11-13T10:27:07;461.10;128.00
66831;DHT22;53739;44.224;22.528;2022-11-13T10:29:34;461.00;128.00
66831;DHT22;53739;44.224;22.528;2022-11-13T10:34:42;435.30;128.00
66831;DHT22;53739;44.224;22.528;2022-11-13T10:39:44;435.20;128.00
66831;DHT22;53739;44.224;22.528;2022-11-13T10:42:38;435.30;128.00
66831;DHT22;53739;44.224;22.528;2022-11-13T10:45:13;435.50;128.00
66831;DHT22;53739;44.224;22.528;2022-11-13T10:51:04;410.20;128.00
66831;DHT22;53739;44.224;22.528;2022-11-13T10:53:48;409.60;128.00
66831;DHT22;53739;44.224;22.528;2022-11-13T10:56:31;384.90;128.00
66831;DHT22;53739;44.224;22.528;2022-11-13T10:59:16;409.60;128.00
66831;DHT22;53739;44.224;22.528;2022-11-13T11:01:43;409.60;128.00
66831;DHT22;53739;44.224;22.528;2022-11-13T11:04:23;409.70;128.00
66831;DHT22;53739;44.224;22.528;2022-11-13T11:06:52;409.90;128.00
66831;DHT22;53739;44.224;22.528;2022-11-13T11:09:22;410.00;128.00
66831;DHT22;53739;44.224;22.528;2022-11-13T11:17:36;384.90;128.00
66831;DHT22;53739;44.224;22.528;2022-11-13T11:20:08;409.70;128.00
66831;DHT22;53739;44.224;22.528;2022-11-13T11:22:38;409.70;128.00
66831;DHT22;53739;44.224;22.528;2022-11-13T11:25:39;409.80;128.00
66831;DHT22;53739;44.224;22.528;2022-11-13T11:28:45;410.00;128.00
66831;DHT22;53739;44.224;22.528;2022-11-13T11:34:18;410.30;128.00
66831;DHT22;53739;44.224;22.528;2022-11-13T11:37:34;410.50;128.00
66831;DHT22;53739;44.224;22.528;2022-11-13T11:40:04;435.30;128.00
66831;DHT22;53739;44.224;22.528;2022-11-13T11:43:19;435.50;563.20
66831;DHT22;53739;44.224;22.528;2022-11-13T11:45:47;435.70;179.20
66831;DHT22;53739;44.224;22.528;2022-11-13T11:48:16;435.70;128.00
66831;DHT22;53739;44.224;22.528;2022-11-13T11:51:24;435.40;128.00
66831;DHT22;53739;44.224;22.528;2022-11-13T11:56:50;435.30;537.60
66831;DHT22;53739;44.224;22.528;2022-11-13T12:07:43;435.70;128.00
66831;DHT22;53739;44.224;22.528;2022-11-13T12:10:49;436.00;128.00
66831;DHT22;53739;44.224;22.528;2022-11-13T12:18:48;436.00;128.00
66831;DHT22;53739;44.224;22.528;2022-11-13T12:21:33;435.80;128.00
66831;DHT22;53739;44.224;22.528;2022-11-13T12:24:28;435.90;128.00
66831;DHT22;53739;44.224;22.528;2022-11-13T12:30:12;435.50;128.00
66831;DHT22;53739;44.224;22.528;2022-11-13T12:35:56;435.30;128.00
66831;DHT22;53739;44.224;22.528;2022-11-13T12:41:41;435.20;128.00
66831;DHT22;53739;44.224;22.528;2022-11-13T12:44:26;410.50;307.20
66831;DHT22;53739;44.224;22.528;2022-11-13T12:46:55;410.20;665.60
66831;DHT22;53739;44.224;22.528;2022-11-13T12:49:28;410.10;281.60
66831;DHT22;53739;44.224;22.528;2022-11-13T12:51:59;384.90;588.80
66831;DHT22;53739;44.224;22.528;2022-11-13T12:54:34;409.60;128.00
66831;DHT22;53739;44.224;22.528;2022-11-13T12:57:20;409.90;128.00
66831;DHT22;53739;44.224;22.528;2022-11-13T12:59:57;409.80;128.00
66831;DHT22;53739;44.224;22.528;2022-11-13T13:02:53;409.90;128.00
66831;DHT22;53739;44.224;22.528;2022-11-13T13:05:52;409.80;128.00
66831;DHT22;53739;44.224;22.528;2022-11-13T13:08:44;409.60;128.00
66831;DHT22;53739;44.224;22.528;2022-11-13T13:16:49;409.60;128.00
66831;DHT22;53739;44.224;22.528;2022-11-13T13:19:29;384.80;128.00
66831;DHT22;53739;44.224;22.528;2022-11-13T13:21:55;384.60;128.00
66831;DHT22;53739;44.224;22.528;2022-11-13T13:26:56;384.50;128.00
66831;DHT22;53739;44.224;22.528;2022-11-13T13:29:26;384.40;128.00
66831;DHT22;53739;44.224;22.528;2022-11-13T13:37:24;384.20;128.00
66831;DHT22;53739;44.224;22.528;2022-11-13T13:45:30;384.20;128.00
66831;DHT22;53739;44.224;22.528;2022-11-13T13:47:59;384.20;128.00
66831;DHT22;53739;44.224;22.528;2022-11-13T13:50:33;384.20;128.00
66831;DHT22;53739;44.224;22.528;2022-11-13T13:53:04;384.10;128.00
66831;DHT22;53739;44.224;22.528;2022-11-13T13:55:34;384.10;128.00
66831;DHT22;53739;44.224;22.528;2022-11-13T13:58:07;384.00;128.00
66831;DHT22;53739;44.224;22.528;2022-11-13T14:00:34;359.30;128.00
66831;DHT22;53739;44.224;22.528;2022-11-13T14:03:00;359.30;128.00
66831;DHT22;53739;44.224;22.528;2022-11-13T14:05:32;359.30;128.00
66831;DHT22;53739;44.224;22.528;2022-11-13T14:07:59;359.20;128.00
66831;DHT22;53739;44.224;22.528;2022-11-13T14:10:27;359.00;128.00
66831;DHT22;53739;44.224;22.528;2022-11-13T14:12:54;359.00;128.00
66831;DHT22;53739;44.224;22.528;2022-11-13T14:15:23;358.90;128.00
66831;DHT22;53739;44.224;22.528;2022-11-13T14:17:50;358.80;128.00
66831;DHT22;53739;44.224;22.528;2022-11-13T14:20:17;358.80;128.00
66831;DHT22;53739;44.224;22.528;2022-11-13T14:22:46;358.80;128.00
66831;DHT22;53739;44.224;22.528;2022-11-13T14:25:21;358.80;128.00
66831;DHT22;53739;44.224;22.528;2022-11-13T14:27:47;358.80;128.00
66831;DHT22;53739;44.224;22.528;2022-11-13T14:30:27;358.80;128.00
66831;DHT22;53739;44.224;22.528;2022-11-13T14:32:53;358.80;128.00
66831;DHT22;53739;44.224;22.528;2022-11-13T14:35:21;358.80;128.00
66831;DHT22;53739;44.224;22.528;2022-11-13T14:37:48;358.70;128.00
66831;DHT22;53739;44.224;22.528;2022-11-13T14:40:24;358.80;128.00
66831;DHT22;53739;44.224;22.528;2022-11-13T14:43:24;358.80;128.00
66831;DHT22;53739;44.224;22.528;2022-11-13T14:45:58;358.70;128.00
66831;DHT22;53739;44.224;22.528;2022-11-13T14:48:33;358.60;204.80
66831;DHT22;53739;44.224;22.528;2022-11-13T14:51:02;358.50;614.40
66831;DHT22;53739;44.224;22.528;2022-11-13T14:53:37;358.50;563.20
66831;DHT22;53739;44.224;22.528;2022-11-13T14:56:05;358.50;537.60
66831;DHT22;53739;44.224;22.528;2022-11-13T14:58:36;358.40;716.80
66831;DHT22;53739;44.224;22.528;2022-11-13T15:03:45;333.70;768.00
66831;DHT22;53739;44.224;22.528;2022-11-13T15:06:25;333.60;614.40
66831;DHT22;53739;44.224;22.528;2022-11-13T15:08:55;333.60;1152.00
66831;DHT22;53739;44.224;22.528;2022-11-13T15:11:24;333.30;1280.00
66831;DHT22;53739;44.224;22.528;2022-11-13T15:13:50;333.20;2252.80
66831;DHT22;53739;44.224;22.528;2022-11-13T15:16:25;333.20;1766.40
66831;DHT22;53739;44.224;22.528;2022-11-13T15:18:53;333.10;1971.20
66831;DHT22;53739;44.224;22.528;2022-11-13T15:21:20;333.10;2329.60
66831;DHT22;53739;44.224;22.528;2022-11-13T15:23:48;332.90;2329.60
66831;DHT22;53739;44.224;22.528;2022-11-13T15:28:43;332.90;2329.60
66831;DHT22;53739;44.224;22.528;2022-11-13T15:31:23;307.90;2304.00
66831;DHT22;53739;44.224;22.528;2022-11-13T15:33:51;307.90;2304.00
66831;DHT22;53739;44.224;22.528;2022-11-13T15:36:17;308.00;2304.00
66831;DHT22;53739;44.224;22.528;2022-11-13T15:38:43;307.70;2304.00
66831;DHT22;53739;44.224;22.528;2022-11-13T15:41:19;307.50;2048.00
66831;DHT22;53739;44.224;22.528;2022-11-13T15:43:47;307.40;2304.00
66831;DHT22;53739;44.224;22.528;2022-11-13T15:46:15;307.40;2304.00
66831;DHT22;53739;44.224;22.528;2022-11-13T15:48:43;307.30;2304.00
66831;DHT22;53739;44.224;22.528;2022-11-13T15:54:15;307.40;2304.00
66831;DHT22;53739;44.224;22.528;2022-11-13T15:56:42;307.30;2304.00
66831;DHT22;53739;44.224;22.528;2022-11-13T15:59:12;307.30;2304.00
66831;DHT22;53739;44.224;22.528;2022-11-13T16:01:39;282.50;2278.40
66831;DHT22;53739;44.224;22.528;2022-11-13T16:04:05;282.40;2278.40
66831;DHT22;53739;44.224;22.528;2022-11-13T16:06:32;282.20;2278.40
66831;DHT22;53739;44.224;22.528;2022-11-13T16:09:03;282.00;2278.40
66831;DHT22;53739;44.224;22.528;2022-11-13T16:16:31;282.20;2278.40
66831;DHT22;53739;44.224;22.528;2022-11-13T16:19:00;282.10;2278.40
66831;DHT22;53739;44.224;22.528;2022-11-13T16:21:26;282.10;2278.40
66831;DHT22;53739;44.224;22.528;2022-11-13T16:23:52;282.10;2278.40
66831;DHT22;53739;44.224;22.528;2022-11-13T16:26:23;281.90;2278.40
66831;DHT22;53739;44.224;22.528;2022-11-13T16:28:50;281.70;2278.40
66831;DHT22;53739;44.224;22.528;2022-11-13T16:31:22;281.80;2278.40
66831;DHT22;53739;44.224;22.528;2022-11-13T16:36:21;281.90;2278.40
66831;DHT22;53739;44.224;22.528;2022-11-13T16:38:47;281.80;2278.40
66831;DHT22;53739;44.224;22.528;2022-11-13T16:41:14;281.80;2278.40
66831;DHT22;53739;44.224;22.528;2022-11-13T16:43:43;281.80;2278.40
66831;DHT22;53739;44.224;22.528;2022-11-13T16:46:31;281.70;2278.40
66831;DHT22;53739;44.224;22.528;2022-11-13T16:48:57;281.60;2278.40
66831;DHT22;53739;44.224;22.528;2022-11-13T16:51:23;281.60;2278.40
66831;DHT22;53739;44.224;22.528;2022-11-13T16:53:49;281.60;2278.40
66831;DHT22;53739;44.224;22.528;2022-11-13T16:56:35;256.90;2252.80
66831;DHT22;53739;44.224;22.528;2022-11-13T17:03:53;256.90;2252.80
66831;DHT22;53739;44.224;22.528;2022-11-13T17:06:21;256.80;2252.80
66831;DHT22;53739;44.224;22.528;2022-11-13T17:08:51;256.80;2252.80
66831;DHT22;53739;44.224;22.528;2022-11-13T17:11:18;256.50;2252.80
66831;DHT22;53739;44.224;22.528;2022-11-13T17:13:55;256.70;2252.80
66831;DHT22;53739;44.224;22.528;2022-11-13T17:16:22;256.60;2252.80
66831;DHT22;53739;44.224;22.528;2022-11-13T17:18:48;256.60;2252.80
66831;DHT22;53739;44.224;22.528;2022-11-13T17:21:19;256.50;2252.80
66831;DHT22;53739;44.224;22.528;2022-11-13T17:23:45;256.40;2252.80
66831;DHT22;53739;44.224;22.528;2022-11-13T17:26:11;256.30;2252.80
66831;DHT22;53739;44.224;22.528;2022-11-13T18:05:21;231.20;2252.80
66831;DHT22;53739;44.224;22.528;2022-11-13T18:07:47;231.10;2252.80
66831;DHT22;53739;44.224;22.528;2022-11-13T18:10:13;231.10;2099.20
66831;DHT22;53739;44.224;22.528;2022-11-13T18:12:39;231.10;1920.00
66831;DHT22;53739;44.224;22.528;2022-11-13T18:15:05;231.10;2252.80
66831;DHT22;53739;44.224;22.528;2022-11-13T18:17:30;231.10;2252.80
66831;DHT22;53739;44.224;22.528;2022-11-13T18:19:56;231.00;2252.80
66831;DHT22;53739;44.224;22.528;2022-11-13T18:29:44;231.10;2252.80
66831;DHT22;53739;44.224;22.528;2022-11-13T18:32:09;231.00;1996.80
66831;DHT22;53739;44.224;22.528;2022-11-13T18:34:35;231.00;2150.40
66831;DHT22;53739;44.224;22.528;2022-11-13T18:37:01;230.90;2252.80
66831;DHT22;53739;44.224;22.528;2022-11-13T18:39:27;230.90;2252.80
66831;DHT22;53739;44.224;22.528;2022-11-13T18:41:53;231.00;2252.80
66831;DHT22;53739;44.224;22.528;2022-11-13T18:44:23;230.90;2099.20
66831;DHT22;53739;44.224;22.528;2022-11-13T18:46:49;230.90;2176.00
66831;DHT22;53739;44.224;22.528;2022-11-13T18:49:20;230.90;2252.80
66831;DHT22;53739;44.224;22.528;2022-11-13T18:51:46;230.90;2252.80
66831;DHT22;53739;44.224;22.528;2022-11-13T18:54:14;230.80;2252.80
66831;DHT22;53739;44.224;22.528;2022-11-13T18:56:44;230.60;2252.80
66831;DHT22;53739;44.224;22.528;2022-11-13T18:59:12;230.60;2252.80
66831;DHT22;53739;44.224;22.528;2022-11-13T19:01:41;230.50;2252.80
66831;DHT22;53739;44.224;22.528;2022-11-13T19:04:10;205.60;2252.80
66831;DHT22;53739;44.224;22.528;2022-11-13T19:06:37;205.40;2252.80
66831;DHT22;53739;44.224;22.528;2022-11-13T19:09:08;205.30;2252.80
66831;DHT22;53739;44.224;22.528;2022-11-13T19:11:34;205.50;2252.80
66831;DHT22;53739;44.224;22.528;2022-11-13T19:14:00;205.50;2252.80
66831;DHT22;53739;44.224;22.528;2022-11-13T19:16:34;205.40;2252.80
66831;DHT22;53739;44.224;22.528;2022-11-13T19:19:03;205.50;2252.80
66831;DHT22;53739;44.224;22.528;2022-11-13T19:21:31;205.50;2252.80
66831;DHT22;53739;44.224;22.528;2022-11-13T19:23:58;205.60;2252.80
66831;DHT22;53739;44.224;22.528;2022-11-13T19:26:24;205.60;2252.80
66831;DHT22;53739;44.224;22.528;2022-11-13T19:28:51;205.60;2252.80
66831;DHT22;53739;44.224;22.528;2022-11-13T19:31:20;205.70;2252.80
66831;DHT22;53739;44.224;22.528;2022-11-13T19:33:46;205.70;2252.80
66831;DHT22;53739;44.224;22.528;2022-11-13T19:36:18;205.60;2252.80
66831;DHT22;53739;44.224;22.528;2022-11-13T19:38:44;205.60;2252.80
66831;DHT22;53739;44.224;22.528;2022-11-13T19:41:10;205.70;2252.80
66831;DHT22;53739;44.224;22.528;2022-11-13T19:43:40;205.70;2252.80
66831;DHT22;53739;44.224;22.528;2022-11-13T19:46:08;205.70;2252.80
66831;DHT22;53739;44.224;22.528;2022-11-13T19:48:35;230.40;2252.80
66831;DHT22;53739;44.224;22.528;2022-11-13T19:51:08;230.40;2252.80
66831;DHT22;53739;44.224;22.528;2022-11-13T19:53:38;230.40;2252.80
66831;DHT22;53739;44.224;22.528;2022-11-13T19:56:05;230.40;2252.80
66831;DHT22;53739;44.224;22.528;2022-11-13T19:58:31;205.70;2252.80
66831;DHT22;53739;44.224;22.528;2022-11-13T20:00:57;205.70;2252.80
66831;DHT22;53739;44.224;22.528;2022-11-13T20:03:24;205.50;2252.80
66831;DHT22;53739;44.224;22.528;2022-11-13T20:05:54;205.50;2252.80
66831;DHT22;53739;44.224;22.528;2022-11-13T20:08:20;205.30;2252.80
66831;DHT22;53739;44.224;22.528;2022-11-13T20:10:46;205.20;2252.80
66831;DHT22;53739;44.224;22.528;2022-11-13T20:13:12;205.00;2252.80
66831;DHT22;53739;44.224;22.528;2022-11-13T20:15:38;204.90;2252.80
66831;DHT22;53739;44.224;22.528;2022-11-13T20:18:04;204.80;2252.80
66831;DHT22;53739;44.224;22.528;2022-11-13T20:20:30;180.10;2252.80
66831;DHT22;53739;44.224;22.528;2022-11-13T20:22:56;180.00;2252.80
66831;DHT22;53739;44.224;22.528;2022-11-13T20:25:22;179.80;2252.80
66831;DHT22;53739;44.224;22.528;2022-11-13T20:27:47;179.70;2252.80
66831;DHT22;53739;44.224;22.528;2022-11-13T20:30:13;179.90;2252.80
66831;DHT22;53739;44.224;22.528;2022-11-13T20:32:39;180.00;2252.80
66831;DHT22;53739;44.224;22.528;2022-11-13T20:35:06;180.10;2252.80
66831;DHT22;53739;44.224;22.528;2022-11-13T20:37:33;179.90;2252.80
66831;DHT22;53739;44.224;22.528;2022-11-13T20:39:59;179.70;2252.80
66831;DHT22;53739;44.224;22.528;2022-11-13T20:42:26;179.80;2252.80
66831;DHT22;53739;44.224;22.528;2022-11-13T20:44:52;180.00;2252.80
66831;DHT22;53739;44.224;22.528;2022-11-13T20:47:18;180.00;2252.80
66831;DHT22;53739;44.224;22.528;2022-11-13T20:49:44;180.00;2252.80
66831;DHT22;53739;44.224;22.528;2022-11-13T20:52:10;180.10;2252.80
66831;DHT22;53739;44.224;22.528;2022-11-13T20:54:36;180.10;2252.80
66831;DHT22;53739;44.224;22.528;2022-11-13T20:57:02;180.00;2252.80
66831;DHT22;53739;44.224;22.528;2022-11-13T20:59:28;180.00;2252.80
66831;DHT22;53739;44.224;22.528;2022-11-13T21:01:54;180.10;2252.80
66831;DHT22;53739;44.224;22.528;2022-11-13T21:04:20;180.10;2252.80
66831;DHT22;53739;44.224;22.528;2022-11-13T21:06:46;180.10;2252.80
66831;DHT22;53739;44.224;22.528;2022-11-13T21:09:12;180.10;2252.80
66831;DHT22;53739;44.224;22.528;2022-11-13T21:11:38;204.80;2252.80
66831;DHT22;53739;44.224;22.528;2022-11-13T21:14:04;204.80;2252.80
66831;DHT22;53739;44.224;22.528;2022-11-13T21:16:29;180.10;2252.80
66831;DHT22;53739;44.224;22.528;2022-11-13T21:18:57;180.10;2252.80
66831;DHT22;53739;44.224;22.528;2022-11-13T21:21:24;180.10;2252.80
66831;DHT22;53739;44.224;22.528;2022-11-13T21:23:51;180.10;2252.80
66831;DHT22;53739;44.224;22.528;2022-11-13T21:26:19;180.10;2252.80
66831;DHT22;53739;44.224;22.528;2022-11-13T21:28:48;179.90;2252.80
66831;DHT22;53739;44.224;22.528;2022-11-13T21:31:18;179.70;2252.80
66831;DHT22;53739;44.224;22.528;2022-11-13T21:33:46;179.60;2252.80
66831;DHT22;53739;44.224;22.528;2022-11-13T21:36:13;179.60;2252.80
66831;DHT22;53739;44.224;22.528;2022-11-13T21:38:39;179.70;2252.80
66831;DHT22;53739;44.224;22.528;2022-11-13T21:41:09;179.70;2252.80
66831;DHT22;53739;44.224;22.528;2022-11-13T21:44:04;179.70;2252.80
66831;DHT22;53739;44.224;22.528;2022-11-13T21:46:32;179.80;2252.80
66831;DHT22;53739;44.224;22.528;2022-11-13T21:49:03;179.80;2252.80
66831;DHT22;53739;44.224;22.528;2022-11-13T21:51:31;179.70;2252.80
66831;DHT22;53739;44.224;22.528;2022-11-13T21:53:57;179.60;2252.80
66831;DHT22;53739;44.224;22.528;2022-11-13T21:56:24;179.60;2252.80
66831;DHT22;53739;44.224;22.528;2022-11-13T21:58:50;179.70;2252.80
66831;DHT22;53739;44.224;22.528;2022-11-13T22:01:17;179.70;2252.80
66831;DHT22;53739;44.224;22.528;2022-11-13T22:03:42;179.70;2252.80
66831;DHT22;53739;44.224;22.528;2022-11-13T22:08:52;179.60;2252.80
66831;DHT22;53739;44.224;22.528;2022-11-13T22:11:19;179.70;2252.80
66831;DHT22;53739;44.224;22.528;2022-11-13T22:13:45;179.70;2252.80
66831;DHT22;53739;44.224;22.528;2022-11-13T22:16:12;179.70;2252.80
66831;DHT22;53739;44.224;22.528;2022-11-13T22:18:37;179.70;2252.80
66831;DHT22;53739;44.224;22.528;2022-11-13T22:21:05;179.60;2252.80
66831;DHT22;53739;44.224;22.528;2022-11-13T22:23:32;179.60;2252.80
66831;DHT22;53739;44.224;22.528;2022-11-13T22:26:06;179.60;2252.80
66831;DHT22;53739;44.224;22.528;2022-11-13T22:28:34;179.40;2252.80
66831;DHT22;53739;44.224;22.528;2022-11-13T22:31:00;179.20;2252.80
66831;DHT22;53739;44.224;22.528;2022-11-13T22:33:31;154.50;2252.80
66831;DHT22;53739;44.224;22.528;2022-11-13T22:36:05;154.30;2252.80
66831;DHT22;53739;44.224;22.528;2022-11-13T22:38:34;154.30;2252.80
66831;DHT22;53739;44.224;22.528;2022-11-13T22:41:02;154.40;2252.80
66831;DHT22;53739;44.224;22.528;2022-11-13T22:43:39;154.50;2252.80
66831;DHT22;53739;44.224;22.528;2022-11-13T22:46:11;154.40;2252.80
66831;DHT22;53739;44.224;22.528;2022-11-13T22:48:39;154.30;2252.80
66831;DHT22;53739;44.224;22.528;2022-11-13T22:53:32;154.40;2252.80
66831;DHT22;53739;44.224;22.528;2022-11-13T22:56:03;154.30;2252.80
66831;DHT22;53739;44.224;22.528;2022-11-13T22:58:29;154.30;2252.80
66831;DHT22;53739;44.224;22.528;2022-11-13T23:01:12;154.30;2252.80
66831;DHT22;53739;44.224;22.528;2022-11-13T23:03:41;154.10;2252.80
66831;DHT22;53739;44.224;22.528;2022-11-13T23:06:08;154.00;2252.80
66831;DHT22;53739;44.224;22.528;2022-11-13T23:08:35;154.10;2252.80
66831;DHT22;53739;44.224;22.528;2022-11-13T23:11:23;154.00;2252.80
66831;DHT22;53739;44.224;22.528;2022-11-13T23:13:56;154.20;2252.80
66831;DHT22;53739;44.224;22.528;2022-11-13T23:16:24;154.30;2252.80
66831;DHT22;53739;44.224;22.528;2022-11-13T23:18:52;154.20;2252.80
66831;DHT22;53739;44.224;22.528;2022-11-13T23:21:18;154.30;2252.80
66831;DHT22;53739;44.224;22.528;2022-11-13T23:23:44;154.30;2252.80
66831;DHT22;53739;44.224;22.528;2022-11-13T23:26:12;154.30;2252.80
66831;DHT22;53739;44.224;22.528;2022-11-13T23:28:38;154.30;2252.80
66831;DHT22;53739;44.224;22.528;2022-11-13T23:31:07;154.30;2252.80
66831;DHT22;53739;44.224;22.528;2022-11-13T23:33:34;154.10;2252.80
66831;DHT22;53739;44.224;22.528;2022-11-13T23:36:03;154.20;2252.80
66831;DHT22;53739;44.224;22.528;2022-11-13T23:38:38;154.30;2252.80
66831;DHT22;53739;44.224;22.528;2022-11-13T23:41:04;154.20;2252.80
66831;DHT22;53739;44.224;22.528;2022-11-13T23:43:31;154.20;2252.80
66831;DHT22;53739;44.224;22.528;2022-11-13T23:45:56;154.10;2252.80
66831;DHT22;53739;44.224;22.528;2022-11-13T23:48:22;153.90;2252.80
66831;DHT22;53739;44.224;22.528;2022-11-13T23:50:48;153.90;2252.80
66831;DHT22;53739;44.224;22.528;2022-11-13T23:53:15;154.00;2252.80
66831;DHT22;53739;44.224;22.528;2022-11-13T23:55:41;154.10;2252.80
66831;DHT22;53739;44.224;22.528;2022-11-13T23:58:15;153.90;2252.80
